Joyful Fortune — VRIH7 — position and weather

sailwx.info

Track history (hours):
 
Tides and Currents Weather Stations Pressure Air Temp Water Temp Dewpoint Dewpoint Depression Visibility Wind Speed Wind Dir Waves Ship Positions

Joyful Fortune

Last reported at 2017-Nov-14 18:42 UTC. Time now 2017-Nov-20 15:26 UTC.
Position N 24°12' E 118°35'.

Length 110 m; draft 5.5 m.

Type: Cargo ship. MMSI: 477861200.

Date/timePositionNaut miles runAvg speedWind from/ knotsBaromVisibWave heightAir tempDewpointWater temp
2017-Nov-14 18:42N 24°12' E 118°35'5 9.4
2017-Nov-14 18:10N 24°09' E 118°30'2 9.1
2017-Nov-14 18:00N 24°08' E 118°29'4 8.9
2017-Nov-14 17:30N 24°05' E 118°26'5 8.7
2017-Nov-14 16:59N 24°02' E 118°23'4 8.6
2017-Nov-14 16:30N 23°59' E 118°19'  
2017-Nov-10 17:05N 22°07' E 114°19'3 7.9
2017-Nov-10 16:43N 22°07' E 114°22'2 8.5
2017-Nov-10 16:30N 22°07' E 114°24'4 8.6
2017-Nov-10 16:00N 22°07' E 114°29'5 9.6
2017-Nov-10 15:29N 22°08' E 114°34'510.4
2017-Nov-10 15:00N 22°08' E 114°39'710.5
2017-Nov-10 14:20N 22°09' E 114°47'310.4
2017-Nov-10 14:00N 22°09' E 114°51'510.7
2017-Nov-10 13:30N 22°09' E 114°56'510.5
2017-Nov-10 13:00N 22°09' E 115°02'510.5
2017-Nov-10 12:30N 22°10' E 115°08'610.5
2017-Nov-10 11:58N 22°10' E 115°14'26510.3
2017-Nov-09 10:22N 22°37' E 119°58'3 9.7
2017-Nov-09 10:00N 22°37' E 120°02'5 9.6
2017-Nov-09 09:30N 22°38' E 120°07'5 9.9
2017-Nov-09 09:00N 22°38' E 120°13'4 7.8
2017-Nov-09 08:30N 22°37' E 120°17'1 0.1
2017-Nov-08 23:43N 22°36' E 120°18'1 3.2
2017-Nov-08 23:30N 22°37' E 120°17'3 6.1
2017-Nov-08 23:01N 22°37' E 120°14'0 0.5
2017-Nov-08 22:30N 22°37' E 120°14'0 0.1
2017-Nov-08 22:00N 22°36' E 120°14'0 0.1
2017-Nov-08 21:30N 22°37' E 120°14'0 0.1
2017-Nov-08 21:00N 22°37' E 120°14'0 0.0
2017-Nov-08 20:24N 22°37' E 120°14'0 0.0
2017-Nov-08 20:00N 22°37' E 120°14'0 0.0
2017-Nov-08 19:27N 22°37' E 120°14'0 0.0
2017-Nov-08 19:00N 22°37' E 120°14'0 0.1
2017-Nov-08 18:30N 22°37' E 120°14'0 0.1
2017-Nov-08 18:00N 22°36' E 120°14'0 0.1
2017-Nov-08 17:30N 22°36' E 120°14'0 0.0
2017-Nov-08 17:00N 22°36' E 120°14'0 0.1
2017-Nov-08 16:30N 22°36' E 120°14'0 0.0
2017-Nov-08 15:57N 22°36' E 120°14'0 0.0
2017-Nov-08 15:30N 22°36' E 120°14'0 0.0
2017-Nov-08 15:00N 22°36' E 120°14'0 0.0
2017-Nov-08 14:30N 22°36' E 120°14'0 0.0
2017-Nov-08 14:00N 22°36' E 120°14'0 0.0
2017-Nov-08 13:30N 22°36' E 120°14'0 0.1
2017-Nov-08 13:00N 22°36' E 120°14'3 5.2
2017-Nov-08 12:30N 22°38' E 120°11'510.6
2017-Nov-08 12:00N 22°43' E 120°08'510.6
2017-Nov-08 11:30N 22°47' E 120°05'  
Track history (hours):
 
Tides and Currents Weather Stations Pressure Air Temp Water Temp Dewpoint Dewpoint Depression Visibility Wind Speed Wind Dir Waves Ship Positions

Joyful Fortune

Last reported at 2017-Nov-14 18:42 UTC. Time now 2017-Nov-20 15:26 UTC.
Position N 24°12' E 118°35'.

Length 110 m; draft 5.5 m.

Type: Cargo ship. MMSI: 477861200.

Date/timePositionNaut miles runAvg speedWind from/ knotsBaromVisibWave heightAir tempDewpointWater temp
2017-Nov-14 18:42N 24°12' E 118°35'5 9.4
2017-Nov-14 18:10N 24°09' E 118°30'2 9.1
2017-Nov-14 18:00N 24°08' E 118°29'4 8.9
2017-Nov-14 17:30N 24°05' E 118°26'5 8.7
2017-Nov-14 16:59N 24°02' E 118°23'4 8.6
2017-Nov-14 16:30N 23°59' E 118°19'  
2017-Nov-10 17:05N 22°07' E 114°19'3 7.9
2017-Nov-10 16:43N 22°07' E 114°22'2 8.5
2017-Nov-10 16:30N 22°07' E 114°24'4 8.6
2017-Nov-10 16:00N 22°07' E 114°29'5 9.6
2017-Nov-10 15:29N 22°08' E 114°34'510.4
2017-Nov-10 15:00N 22°08' E 114°39'710.5
2017-Nov-10 14:20N 22°09' E 114°47'310.4
2017-Nov-10 14:00N 22°09' E 114°51'510.7
2017-Nov-10 13:30N 22°09' E 114°56'510.5
2017-Nov-10 13:00N 22°09' E 115°02'510.5
2017-Nov-10 12:30N 22°10' E 115°08'610.5
2017-Nov-10 11:58N 22°10' E 115°14'26510.3
2017-Nov-09 10:22N 22°37' E 119°58'3 9.7
2017-Nov-09 10:00N 22°37' E 120°02'5 9.6
2017-Nov-09 09:30N 22°38' E 120°07'5 9.9
2017-Nov-09 09:00N 22°38' E 120°13'4 7.8
2017-Nov-09 08:30N 22°37' E 120°17'1 0.1
2017-Nov-08 23:43N 22°36' E 120°18'1 3.2
2017-Nov-08 23:30N 22°37' E 120°17'3 6.1
2017-Nov-08 23:01N 22°37' E 120°14'0 0.5
2017-Nov-08 22:30N 22°37' E 120°14'0 0.1
2017-Nov-08 22:00N 22°36' E 120°14'0 0.1
2017-Nov-08 21:30N 22°37' E 120°14'0 0.1
2017-Nov-08 21:00N 22°37' E 120°14'0 0.0
2017-Nov-08 20:24N 22°37' E 120°14'0 0.0
2017-Nov-08 20:00N 22°37' E 120°14'0 0.0
2017-Nov-08 19:27N 22°37' E 120°14'0 0.0
2017-Nov-08 19:00N 22°37' E 120°14'0 0.1
2017-Nov-08 18:30N 22°37' E 120°14'0 0.1
2017-Nov-08 18:00N 22°36' E 120°14'0 0.1
2017-Nov-08 17:30N 22°36' E 120°14'0 0.0
2017-Nov-08 17:00N 22°36' E 120°14'0 0.1
2017-Nov-08 16:30N 22°36' E 120°14'0 0.0
2017-Nov-08 15:57N 22°36' E 120°14'0 0.0
2017-Nov-08 15:30N 22°36' E 120°14'0 0.0
2017-Nov-08 15:00N 22°36' E 120°14'0 0.0
2017-Nov-08 14:30N 22°36' E 120°14'0 0.0
2017-Nov-08 14:00N 22°36' E 120°14'0 0.0
2017-Nov-08 13:30N 22°36' E 120°14'0 0.1
2017-Nov-08 13:00N 22°36' E 120°14'3 5.2
2017-Nov-08 12:30N 22°38' E 120°11'510.6
2017-Nov-08 12:00N 22°43' E 120°08'510.6
2017-Nov-08 11:30N 22°47' E 120°05'  

Dump ship's entire track history